sensor_id;sensor_type;location;lat;lon;timestamp;pressure;altitude;pressure_sealevel;temperature;humidity
79465;BME280;68932;47.410;8.232;2023-08-31T00:01:39;96437.33;;;14.87;76.51
79465;BME280;68932;47.410;8.232;2023-08-31T00:04:08;96433.98;;;14.87;76.45
79465;BME280;68932;47.410;8.232;2023-08-31T00:06:36;96436.77;;;14.87;76.36
79465;BME280;68932;47.410;8.232;2023-08-31T00:09:04;96436.40;;;14.87;76.33
79465;BME280;68932;47.410;8.232;2023-08-31T00:11:33;96435.73;;;14.87;76.07
79465;BME280;68932;47.410;8.232;2023-08-31T00:14:01;96439.06;;;14.85;76.04
79465;BME280;68932;47.410;8.232;2023-08-31T00:16:30;96434.99;;;14.85;76.11
79465;BME280;68932;47.410;8.232;2023-08-31T00:18:58;96432.05;;;14.86;75.99
79465;BME280;68932;47.410;8.232;2023-08-31T00:21:27;96433.20;;;14.87;75.84
79465;BME280;68932;47.410;8.232;2023-08-31T00:23:55;96435.60;;;14.88;75.80
79465;BME280;68932;47.410;8.232;2023-08-31T00:26:23;96434.87;;;14.88;75.82
79465;BME280;68932;47.410;8.232;2023-08-31T00:28:51;96435.85;;;14.88;75.87
79465;BME280;68932;47.410;8.232;2023-08-31T00:31:20;96435.27;;;14.86;75.95
79465;BME280;68932;47.410;8.232;2023-08-31T00:33:48;96439.92;;;14.84;75.75
79465;BME280;68932;47.410;8.232;2023-08-31T00:36:16;96441.01;;;14.81;75.82
79465;BME280;68932;47.410;8.232;2023-08-31T00:38:44;96439.45;;;14.79;75.82
79465;BME280;68932;47.410;8.232;2023-08-31T00:41:13;96439.18;;;14.76;75.77
79465;BME280;68932;47.410;8.232;2023-08-31T00:43:41;96440.66;;;14.73;75.67
79465;BME280;68932;47.410;8.232;2023-08-31T00:46:09;96442.27;;;14.71;75.66
79465;BME280;68932;47.410;8.232;2023-08-31T00:48:38;96442.86;;;14.69;75.58
79465;BME280;68932;47.410;8.232;2023-08-31T00:51:07;96443.55;;;14.67;75.89
79465;BME280;68932;47.410;8.232;2023-08-31T00:53:36;96440.83;;;14.66;75.88
79465;BME280;68932;47.410;8.232;2023-08-31T00:56:05;96443.73;;;14.65;75.95
79465;BME280;68932;47.410;8.232;2023-08-31T00:58:34;96439.98;;;14.63;76.21
79465;BME280;68932;47.410;8.232;2023-08-31T01:01:08;96439.01;;;14.62;76.34
79465;BME280;68932;47.410;8.232;2023-08-31T01:03:43;96434.45;;;14.62;76.29
79465;BME280;68932;47.410;8.232;2023-08-31T01:06:22;96429.19;;;14.62;76.34
79465;BME280;68932;47.410;8.232;2023-08-31T01:08:59;96429.91;;;14.62;76.46
79465;BME280;68932;47.410;8.232;2023-08-31T01:11:34;96435.67;;;14.60;76.42
79465;BME280;68932;47.410;8.232;2023-08-31T01:14:09;96441.71;;;14.58;76.55
79465;BME280;68932;47.410;8.232;2023-08-31T01:16:40;96444.92;;;14.57;76.85
79465;BME280;68932;47.410;8.232;2023-08-31T01:19:23;96449.71;;;14.59;76.85
79465;BME280;68932;47.410;8.232;2023-08-31T01:21:57;96451.44;;;14.62;76.76
79465;BME280;68932;47.410;8.232;2023-08-31T01:24:28;96447.37;;;14.64;76.94
79465;BME280;68932;47.410;8.232;2023-08-31T01:26:56;96443.97;;;14.66;77.00
79465;BME280;68932;47.410;8.232;2023-08-31T01:29:25;96448.42;;;14.67;76.93
79465;BME280;68932;47.410;8.232;2023-08-31T01:31:53;96450.26;;;14.69;76.86
79465;BME280;68932;47.410;8.232;2023-08-31T01:34:22;96450.48;;;14.68;76.96
79465;BME280;68932;47.410;8.232;2023-08-31T01:36:53;96449.83;;;14.68;76.99
79465;BME280;68932;47.410;8.232;2023-08-31T01:39:29;96458.20;;;14.68;77.08
79465;BME280;68932;47.410;8.232;2023-08-31T01:42:04;96453.23;;;14.69;77.00
79465;BME280;68932;47.410;8.232;2023-08-31T01:44:32;96452.77;;;14.70;76.85
79465;BME280;68932;47.410;8.232;2023-08-31T01:47:05;96457.81;;;14.67;76.75
79465;BME280;68932;47.410;8.232;2023-08-31T01:49:38;96464.64;;;14.64;76.90
79465;BME280;68932;47.410;8.232;2023-08-31T01:52:07;96464.89;;;14.61;77.07
79465;BME280;68932;47.410;8.232;2023-08-31T01:54:36;96466.47;;;14.63;77.22
79465;BME280;68932;47.410;8.232;2023-08-31T01:57:05;96467.92;;;14.64;77.28
79465;BME280;68932;47.410;8.232;2023-08-31T01:59:33;96468.86;;;14.66;77.20
79465;BME280;68932;47.410;8.232;2023-08-31T02:02:02;96470.48;;;14.67;77.18
79465;BME280;68932;47.410;8.232;2023-08-31T02:04:30;96468.11;;;14.70;77.00
79465;BME280;68932;47.410;8.232;2023-08-31T02:06:58;96470.32;;;14.71;76.91
79465;BME280;68932;47.410;8.232;2023-08-31T02:09:27;96468.34;;;14.71;76.76
79465;BME280;68932;47.410;8.232;2023-08-31T02:11:55;96471.63;;;14.72;76.59
79465;BME280;68932;47.410;8.232;2023-08-31T02:14:23;96468.09;;;14.72;76.65
79465;BME280;68932;47.410;8.232;2023-08-31T02:16:52;96469.35;;;14.74;76.72
79465;BME280;68932;47.410;8.232;2023-08-31T02:19:20;96472.66;;;14.74;76.60
79465;BME280;68932;47.410;8.232;2023-08-31T02:21:48;96475.86;;;14.74;76.64
79465;BME280;68932;47.410;8.232;2023-08-31T02:24:16;96473.83;;;14.75;76.73
79465;BME280;68932;47.410;8.232;2023-08-31T02:26:45;96477.95;;;14.76;76.89
79465;BME280;68932;47.410;8.232;2023-08-31T02:29:13;96477.51;;;14.77;76.97
79465;BME280;68932;47.410;8.232;2023-08-31T02:31:41;96476.64;;;14.79;76.90
79465;BME280;68932;47.410;8.232;2023-08-31T02:34:10;96479.55;;;14.81;76.98
79465;BME280;68932;47.410;8.232;2023-08-31T02:36:38;96479.17;;;14.81;77.02
79465;BME280;68932;47.410;8.232;2023-08-31T02:39:06;96482.64;;;14.82;77.07
79465;BME280;68932;47.410;8.232;2023-08-31T02:41:35;96484.58;;;14.83;77.16
79465;BME280;68932;47.410;8.232;2023-08-31T02:44:03;96492.80;;;14.82;77.09
79465;BME280;68932;47.410;8.232;2023-08-31T02:46:32;96496.77;;;14.79;77.06
79465;BME280;68932;47.410;8.232;2023-08-31T02:49:00;96490.62;;;14.78;77.13
79465;BME280;68932;47.410;8.232;2023-08-31T02:51:28;96493.33;;;14.78;76.96
79465;BME280;68932;47.410;8.232;2023-08-31T02:53:57;96495.60;;;14.78;77.16
79465;BME280;68932;47.410;8.232;2023-08-31T02:56:25;96499.73;;;14.80;77.04
79465;BME280;68932;47.410;8.232;2023-08-31T02:58:53;96497.92;;;14.78;77.03
79465;BME280;68932;47.410;8.232;2023-08-31T03:01:21;96497.35;;;14.79;77.04
79465;BME280;68932;47.410;8.232;2023-08-31T03:03:50;96495.96;;;14.78;76.85
79465;BME280;68932;47.410;8.232;2023-08-31T03:06:18;96488.30;;;14.79;76.82
79465;BME280;68932;47.410;8.232;2023-08-31T03:08:46;96488.70;;;14.81;76.97
79465;BME280;68932;47.410;8.232;2023-08-31T03:11:14;96487.14;;;14.80;76.98
79465;BME280;68932;47.410;8.232;2023-08-31T03:13:43;96490.39;;;14.81;76.52
79465;BME280;68932;47.410;8.232;2023-08-31T03:16:11;96490.57;;;14.77;75.45
79465;BME280;68932;47.410;8.232;2023-08-31T03:18:39;96495.95;;;14.74;75.36
79465;BME280;68932;47.410;8.232;2023-08-31T03:21:07;96498.18;;;14.73;75.42
79465;BME280;68932;47.410;8.232;2023-08-31T03:23:36;96497.63;;;14.73;75.71
79465;BME280;68932;47.410;8.232;2023-08-31T03:26:09;96495.14;;;14.73;75.86
79465;BME280;68932;47.410;8.232;2023-08-31T03:28:37;96493.61;;;14.75;75.93
79465;BME280;68932;47.410;8.232;2023-08-31T03:31:06;96492.55;;;14.77;76.02
79465;BME280;68932;47.410;8.232;2023-08-31T03:33:34;96492.91;;;14.79;76.16
79465;BME280;68932;47.410;8.232;2023-08-31T03:36:03;96493.64;;;14.81;76.20
79465;BME280;68932;47.410;8.232;2023-08-31T03:38:31;96496.17;;;14.82;76.32
79465;BME280;68932;47.410;8.232;2023-08-31T03:41:00;96500.10;;;14.84;76.32
79465;BME280;68932;47.410;8.232;2023-08-31T03:43:28;96496.23;;;14.85;76.37
79465;BME280;68932;47.410;8.232;2023-08-31T03:45:57;96499.65;;;14.86;76.41
79465;BME280;68932;47.410;8.232;2023-08-31T03:48:26;96500.46;;;14.87;76.50
79465;BME280;68932;47.410;8.232;2023-08-31T03:50:55;96500.66;;;14.87;76.48
79465;BME280;68932;47.410;8.232;2023-08-31T03:53:23;96506.80;;;14.85;76.69
79465;BME280;68932;47.410;8.232;2023-08-31T03:55:51;96509.02;;;14.84;76.65
79465;BME280;68932;47.410;8.232;2023-08-31T03:58:19;96512.21;;;14.84;76.77
79465;BME280;68932;47.410;8.232;2023-08-31T04:00:50;96515.98;;;14.85;76.82
79465;BME280;68932;47.410;8.232;2023-08-31T04:03:18;96518.74;;;14.86;77.00
79465;BME280;68932;47.410;8.232;2023-08-31T04:05:47;96520.08;;;14.87;77.05
79465;BME280;68932;47.410;8.232;2023-08-31T04:08:15;96525.76;;;14.88;77.10
79465;BME280;68932;47.410;8.232;2023-08-31T04:10:43;96525.13;;;14.89;77.08
79465;BME280;68932;47.410;8.232;2023-08-31T04:13:11;96528.20;;;14.91;77.06
79465;BME280;68932;47.410;8.232;2023-08-31T04:15:40;96527.77;;;14.92;77.22
79465;BME280;68932;47.410;8.232;2023-08-31T04:18:08;96531.47;;;14.93;77.30
79465;BME280;68932;47.410;8.232;2023-08-31T04:20:36;96532.81;;;14.94;77.10
79465;BME280;68932;47.410;8.232;2023-08-31T04:23:05;96537.05;;;14.94;77.27
79465;BME280;68932;47.410;8.232;2023-08-31T04:25:33;96543.65;;;14.95;77.24
79465;BME280;68932;47.410;8.232;2023-08-31T04:28:01;96548.66;;;14.96;77.33
79465;BME280;68932;47.410;8.232;2023-08-31T04:30:29;96553.83;;;14.98;77.66
79465;BME280;68932;47.410;8.232;2023-08-31T04:32:58;96558.60;;;15.04;80.41
79465;BME280;68932;47.410;8.232;2023-08-31T04:35:26;96560.75;;;15.13;81.72
79465;BME280;68932;47.410;8.232;2023-08-31T04:37:54;96568.17;;;15.23;82.77
79465;BME280;68932;47.410;8.232;2023-08-31T04:40:23;96562.15;;;15.33;82.95
79465;BME280;68932;47.410;8.232;2023-08-31T04:42:51;96560.64;;;15.40;81.90
79465;BME280;68932;47.410;8.232;2023-08-31T04:45:19;96546.91;;;15.43;81.05
79465;BME280;68932;47.410;8.232;2023-08-31T04:47:47;96542.86;;;15.41;79.96
79465;BME280;68932;47.410;8.232;2023-08-31T04:50:16;96548.03;;;15.40;80.04
79465;BME280;68932;47.410;8.232;2023-08-31T04:52:44;96554.25;;;15.36;79.04
79465;BME280;68932;47.410;8.232;2023-08-31T04:55:14;96557.27;;;15.32;79.28
79465;BME280;68932;47.410;8.232;2023-08-31T04:57:42;96559.09;;;15.30;78.79
79465;BME280;68932;47.410;8.232;2023-08-31T05:00:12;96562.16;;;15.25;78.31
79465;BME280;68932;47.410;8.232;2023-08-31T05:02:41;96564.55;;;15.20;77.99
79465;BME280;68932;47.410;8.232;2023-08-31T05:05:10;96570.02;;;15.14;77.92
79465;BME280;68932;47.410;8.232;2023-08-31T05:07:38;96571.20;;;15.09;77.59
79465;BME280;68932;47.410;8.232;2023-08-31T05:10:09;96576.11;;;15.03;77.47
79465;BME280;68932;47.410;8.232;2023-08-31T05:12:37;96585.60;;;14.98;77.35
79465;BME280;68932;47.410;8.232;2023-08-31T05:15:07;96590.75;;;14.92;77.31
79465;BME280;68932;47.410;8.232;2023-08-31T05:17:35;96591.39;;;14.84;77.23
79465;BME280;68932;47.410;8.232;2023-08-31T05:20:05;96586.45;;;14.78;77.47
79465;BME280;68932;47.410;8.232;2023-08-31T05:22:34;96590.30;;;14.75;77.37
79465;BME280;68932;47.410;8.232;2023-08-31T05:25:03;96592.98;;;14.73;77.55
79465;BME280;68932;47.410;8.232;2023-08-31T05:27:31;96594.02;;;14.70;77.62
79465;BME280;68932;47.410;8.232;2023-08-31T05:29:59;96595.16;;;14.70;77.64
79465;BME280;68932;47.410;8.232;2023-08-31T05:32:30;96599.92;;;14.70;77.85
79465;BME280;68932;47.410;8.232;2023-08-31T05:34:59;96602.48;;;14.71;78.00
79465;BME280;68932;47.410;8.232;2023-08-31T05:37:27;96611.17;;;14.72;78.07
79465;BME280;68932;47.410;8.232;2023-08-31T05:39:59;96616.31;;;14.72;78.15
79465;BME280;68932;47.410;8.232;2023-08-31T05:42:27;96617.09;;;14.71;78.27
79465;BME280;68932;47.410;8.232;2023-08-31T05:44:56;96616.86;;;14.72;78.43
79465;BME280;68932;47.410;8.232;2023-08-31T05:47:24;96618.04;;;14.72;78.52
79465;BME280;68932;47.410;8.232;2023-08-31T05:49:52;96625.54;;;14.73;78.51
79465;BME280;68932;47.410;8.232;2023-08-31T05:52:21;96628.35;;;14.73;78.83
79465;BME280;68932;47.410;8.232;2023-08-31T05:54:50;96629.51;;;14.76;78.80
79465;BME280;68932;47.410;8.232;2023-08-31T05:57:20;96627.89;;;14.81;79.04
79465;BME280;68932;47.410;8.232;2023-08-31T05:59:48;96632.00;;;14.86;79.11
79465;BME280;68932;47.410;8.232;2023-08-31T06:02:17;96630.45;;;14.92;79.12
79465;BME280;68932;47.410;8.232;2023-08-31T06:04:45;96629.76;;;14.96;79.06
79465;BME280;68932;47.410;8.232;2023-08-31T06:07:13;96631.37;;;15.01;79.03
79465;BME280;68932;47.410;8.232;2023-08-31T06:09:41;96633.05;;;15.10;79.24
79465;BME280;68932;47.410;8.232;2023-08-31T06:12:10;96635.05;;;15.17;79.34
79465;BME280;68932;47.410;8.232;2023-08-31T06:14:38;96638.33;;;15.23;78.98
79465;BME280;68932;47.410;8.232;2023-08-31T06:17:07;96637.63;;;15.26;78.77
79465;BME280;68932;47.410;8.232;2023-08-31T06:19:35;96637.23;;;15.30;78.89
79465;BME280;68932;47.410;8.232;2023-08-31T06:22:03;96641.34;;;15.34;78.84
79465;BME280;68932;47.410;8.232;2023-08-31T06:24:32;96639.30;;;15.37;78.96
79465;BME280;68932;47.410;8.232;2023-08-31T06:27:00;96640.08;;;15.40;79.01
79465;BME280;68932;47.410;8.232;2023-08-31T06:29:28;96642.92;;;15.44;78.95
79465;BME280;68932;47.410;8.232;2023-08-31T06:31:56;96642.01;;;15.48;78.62
79465;BME280;68932;47.410;8.232;2023-08-31T06:34:25;96645.45;;;15.51;78.70
79465;BME280;68932;47.410;8.232;2023-08-31T06:36:53;96648.04;;;15.55;78.80
79465;BME280;68932;47.410;8.232;2023-08-31T06:39:21;96651.98;;;15.61;78.71
79465;BME280;68932;47.410;8.232;2023-08-31T06:41:49;96654.02;;;15.65;78.76
79465;BME280;68932;47.410;8.232;2023-08-31T06:44:18;96662.39;;;15.72;78.67
79465;BME280;68932;47.410;8.232;2023-08-31T06:46:46;96671.32;;;15.79;78.57
79465;BME280;68932;47.410;8.232;2023-08-31T06:49:14;96677.52;;;15.83;78.04
79465;BME280;68932;47.410;8.232;2023-08-31T06:51:43;96675.30;;;15.86;77.74
79465;BME280;68932;47.410;8.232;2023-08-31T06:54:11;96672.47;;;15.90;77.85
79465;BME280;68932;47.410;8.232;2023-08-31T06:56:39;96673.48;;;15.94;77.93
79465;BME280;68932;47.410;8.232;2023-08-31T06:59:07;96678.54;;;16.03;77.87
79465;BME280;68932;47.410;8.232;2023-08-31T07:01:36;96681.03;;;16.14;77.60
79465;BME280;68932;47.410;8.232;2023-08-31T07:04:05;96684.44;;;16.21;76.76
79465;BME280;68932;47.410;8.232;2023-08-31T07:06:35;96679.48;;;16.27;76.07
79465;BME280;68932;47.410;8.232;2023-08-31T07:09:03;96669.27;;;16.30;75.56
79465;BME280;68932;47.410;8.232;2023-08-31T07:11:32;96662.96;;;16.35;75.40
79465;BME280;68932;47.410;8.232;2023-08-31T07:14:00;96663.43;;;16.45;75.64
79465;BME280;68932;47.410;8.232;2023-08-31T07:16:28;96671.28;;;16.59;75.55
79465;BME280;68932;47.410;8.232;2023-08-31T07:18:57;96679.29;;;16.70;74.81
79465;BME280;68932;47.410;8.232;2023-08-31T07:21:25;96688.60;;;16.78;74.63
79465;BME280;68932;47.410;8.232;2023-08-31T07:23:54;96696.59;;;16.88;74.37
79465;BME280;68932;47.410;8.232;2023-08-31T07:26:22;96698.13;;;16.96;74.59
79465;BME280;68932;47.410;8.232;2023-08-31T07:28:50;96700.27;;;17.05;74.46
79465;BME280;68932;47.410;8.232;2023-08-31T07:31:19;96699.55;;;17.12;73.88
79465;BME280;68932;47.410;8.232;2023-08-31T07:33:47;96700.45;;;17.19;73.78
79465;BME280;68932;47.410;8.232;2023-08-31T07:36:15;96703.93;;;17.28;73.75
79465;BME280;68932;47.410;8.232;2023-08-31T07:38:44;96708.38;;;17.40;73.92
79465;BME280;68932;47.410;8.232;2023-08-31T07:41:12;96707.85;;;17.54;73.62
79465;BME280;68932;47.410;8.232;2023-08-31T07:43:40;96714.13;;;17.63;72.18
79465;BME280;68932;47.410;8.232;2023-08-31T07:46:08;96717.71;;;17.60;70.76
79465;BME280;68932;47.410;8.232;2023-08-31T07:48:37;96715.91;;;17.55;70.55
79465;BME280;68932;47.410;8.232;2023-08-31T07:51:05;96719.89;;;17.52;70.46
79465;BME280;68932;47.410;8.232;2023-08-31T07:53:33;96725.00;;;17.51;70.70
79465;BME280;68932;47.410;8.232;2023-08-31T07:56:02;96725.52;;;17.49;70.63
79465;BME280;68932;47.410;8.232;2023-08-31T07:58:30;96729.42;;;17.49;71.49
79465;BME280;68932;47.410;8.232;2023-08-31T08:00:58;96727.50;;;17.54;71.71
79465;BME280;68932;47.410;8.232;2023-08-31T08:03:26;96731.82;;;17.63;71.75
79465;BME280;68932;47.410;8.232;2023-08-31T08:05:57;96740.91;;;17.70;70.87
79465;BME280;68932;47.410;8.232;2023-08-31T08:08:25;96742.65;;;17.72;70.15
79465;BME280;68932;47.410;8.232;2023-08-31T08:10:55;96749.73;;;17.72;70.04
79465;BME280;68932;47.410;8.232;2023-08-31T08:13:23;96750.89;;;17.71;69.61
79465;BME280;68932;47.410;8.232;2023-08-31T08:15:52;96749.88;;;17.69;69.44
79465;BME280;68932;47.410;8.232;2023-08-31T08:18:20;96752.19;;;17.70;69.87
79465;BME280;68932;47.410;8.232;2023-08-31T08:20:51;96754.47;;;17.76;69.79
79465;BME280;68932;47.410;8.232;2023-08-31T08:23:19;96756.59;;;17.80;68.96
79465;BME280;68932;47.410;8.232;2023-08-31T08:25:47;96758.55;;;17.79;68.76
79465;BME280;68932;47.410;8.232;2023-08-31T08:28:16;96758.05;;;17.79;69.02
79465;BME280;68932;47.410;8.232;2023-08-31T08:30:44;96759.95;;;17.74;68.15
79465;BME280;68932;47.410;8.232;2023-08-31T08:33:12;96763.20;;;17.75;69.10
79465;BME280;68932;47.410;8.232;2023-08-31T08:35:41;96760.61;;;17.80;69.42
79465;BME280;68932;47.410;8.232;2023-08-31T08:38:09;96756.39;;;17.85;69.02
79465;BME280;68932;47.410;8.232;2023-08-31T08:40:37;96761.08;;;17.94;69.22
79465;BME280;68932;47.410;8.232;2023-08-31T08:43:07;96770.02;;;18.04;69.20
79465;BME280;68932;47.410;8.232;2023-08-31T08:45:38;96766.84;;;18.09;67.91
79465;BME280;68932;47.410;8.232;2023-08-31T08:48:07;96767.10;;;18.10;67.66
79465;BME280;68932;47.410;8.232;2023-08-31T08:50:37;96774.73;;;18.14;67.65
79465;BME280;68932;47.410;8.232;2023-08-31T08:53:06;96775.17;;;18.18;68.35
79465;BME280;68932;47.410;8.232;2023-08-31T08:55:35;96771.02;;;18.24;68.19
79465;BME280;68932;47.410;8.232;2023-08-31T08:58:03;96766.95;;;18.32;67.65
79465;BME280;68932;47.410;8.232;2023-08-31T09:00:32;96771.02;;;18.40;67.33
79465;BME280;68932;47.410;8.232;2023-08-31T09:03:01;96776.05;;;18.46;67.33
79465;BME280;68932;47.410;8.232;2023-08-31T09:05:32;96776.55;;;18.52;67.05
79465;BME280;68932;47.410;8.232;2023-08-31T09:08:05;96778.02;;;18.55;66.54
79465;BME280;68932;47.410;8.232;2023-08-31T09:10:37;96778.27;;;18.59;66.48
79465;BME280;68932;47.410;8.232;2023-08-31T09:13:08;96776.15;;;18.63;65.97
79465;BME280;68932;47.410;8.232;2023-08-31T09:15:43;96780.21;;;18.70;66.64
79465;BME280;68932;47.410;8.232;2023-08-31T09:18:15;96779.20;;;18.81;66.46
79465;BME280;68932;47.410;8.232;2023-08-31T09:20:48;96778.99;;;18.91;66.41
79465;BME280;68932;47.410;8.232;2023-08-31T09:23:16;96782.31;;;18.95;65.21
79465;BME280;68932;47.410;8.232;2023-08-31T09:25:46;96784.95;;;18.94;64.72
79465;BME280;68932;47.410;8.232;2023-08-31T09:28:16;96777.77;;;18.94;65.10
79465;BME280;68932;47.410;8.232;2023-08-31T09:30:44;96778.95;;;18.93;64.94
79465;BME280;68932;47.410;8.232;2023-08-31T09:33:16;96784.41;;;18.87;64.37
79465;BME280;68932;47.410;8.232;2023-08-31T09:35:49;96786.77;;;18.81;64.00
79465;BME280;68932;47.410;8.232;2023-08-31T09:38:18;96784.39;;;18.74;63.93
79465;BME280;68932;47.410;8.232;2023-08-31T09:40:47;96787.41;;;18.71;63.69
79465;BME280;68932;47.410;8.232;2023-08-31T09:43:22;96789.20;;;18.65;63.63
79465;BME280;68932;47.410;8.232;2023-08-31T09:45:51;96787.58;;;18.62;63.70
79465;BME280;68932;47.410;8.232;2023-08-31T09:48:20;96783.35;;;18.65;64.58
79465;BME280;68932;47.410;8.232;2023-08-31T09:50:50;96780.75;;;18.70;64.54
79465;BME280;68932;47.410;8.232;2023-08-31T09:53:21;96780.20;;;18.75;63.88
79465;BME280;68932;47.410;8.232;2023-08-31T09:55:52;96785.98;;;18.80;63.80
79465;BME280;68932;47.410;8.232;2023-08-31T09:58:22;96786.46;;;18.82;64.13
79465;BME280;68932;47.410;8.232;2023-08-31T10:00:52;96784.20;;;18.82;63.49
79465;BME280;68932;47.410;8.232;2023-08-31T10:03:21;96779.64;;;18.80;62.14
79465;BME280;68932;47.410;8.232;2023-08-31T10:05:50;96779.37;;;18.81;62.35
79465;BME280;68932;47.410;8.232;2023-08-31T10:08:19;96781.48;;;18.84;61.78
79465;BME280;68932;47.410;8.232;2023-08-31T10:10:48;96782.86;;;18.86;62.13
79465;BME280;68932;47.410;8.232;2023-08-31T10:13:16;96784.30;;;18.86;60.95
79465;BME280;68932;47.410;8.232;2023-08-31T10:15:47;96784.94;;;18.88;61.10
79465;BME280;68932;47.410;8.232;2023-08-31T10:18:17;96780.59;;;18.89;60.56
79465;BME280;68932;47.410;8.232;2023-08-31T10:20:45;96786.02;;;18.90;60.72
79465;BME280;68932;47.410;8.232;2023-08-31T10:23:14;96780.89;;;18.90;60.91
79465;BME280;68932;47.410;8.232;2023-08-31T10:26:03;96786.74;;;18.83;60.02
79465;BME280;68932;47.410;8.232;2023-08-31T10:28:40;96783.30;;;18.76;58.32
79465;BME280;68932;47.410;8.232;2023-08-31T10:31:10;96785.29;;;18.67;58.19
79465;BME280;68932;47.410;8.232;2023-08-31T10:33:44;96781.71;;;18.62;58.80
79465;BME280;68932;47.410;8.232;2023-08-31T10:36:14;96781.16;;;18.57;58.76
79465;BME280;68932;47.410;8.232;2023-08-31T10:38:44;96780.83;;;18.54;58.32
79465;BME280;68932;47.410;8.232;2023-08-31T10:41:23;96778.91;;;18.50;59.11
79465;BME280;68932;47.410;8.232;2023-08-31T10:43:55;96783.49;;;18.48;59.26
79465;BME280;68932;47.410;8.232;2023-08-31T10:46:29;96785.77;;;18.43;58.12
79465;BME280;68932;47.410;8.232;2023-08-31T10:48:59;96782.77;;;18.40;58.65
79465;BME280;68932;47.410;8.232;2023-08-31T10:51:29;96774.85;;;18.41;59.35
79465;BME280;68932;47.410;8.232;2023-08-31T10:54:11;96777.27;;;18.42;58.58
79465;BME280;68932;47.410;8.232;2023-08-31T10:57:01;96774.53;;;18.44;58.58
79465;BME280;68932;47.410;8.232;2023-08-31T10:59:44;96775.02;;;18.46;58.51
79465;BME280;68932;47.410;8.232;2023-08-31T11:02:28;96772.40;;;18.53;58.92
79465;BME280;68932;47.410;8.232;2023-08-31T11:04:59;96770.70;;;18.57;58.53
79465;BME280;68932;47.410;8.232;2023-08-31T11:07:28;96770.86;;;18.62;59.78
79465;BME280;68932;47.410;8.232;2023-08-31T11:10:14;96765.73;;;18.69;59.63
79465;BME280;68932;47.410;8.232;2023-08-31T11:12:44;96767.48;;;18.73;58.06
79465;BME280;68932;47.410;8.232;2023-08-31T11:15:14;96767.20;;;18.70;57.43
79465;BME280;68932;47.410;8.232;2023-08-31T11:17:43;96764.09;;;18.73;57.95
79465;BME280;68932;47.410;8.232;2023-08-31T11:20:14;96766.32;;;18.79;58.26
79465;BME280;68932;47.410;8.232;2023-08-31T11:22:44;96760.73;;;18.86;58.22
79465;BME280;68932;47.410;8.232;2023-08-31T11:25:14;96764.47;;;18.91;57.47
79465;BME280;68932;47.410;8.232;2023-08-31T11:27:43;96765.86;;;18.94;57.78
79465;BME280;68932;47.410;8.232;2023-08-31T11:30:20;96766.23;;;19.01;57.12
79465;BME280;68932;47.410;8.232;2023-08-31T11:32:50;96766.03;;;19.03;56.75
79465;BME280;68932;47.410;8.232;2023-08-31T11:35:19;96766.36;;;19.01;56.42
79465;BME280;68932;47.410;8.232;2023-08-31T11:37:51;96764.08;;;19.05;57.43
79465;BME280;68932;47.410;8.232;2023-08-31T11:40:20;96765.14;;;19.10;56.92
79465;BME280;68932;47.410;8.232;2023-08-31T11:42:49;96765.64;;;19.10;56.25
79465;BME280;68932;47.410;8.232;2023-08-31T11:45:17;96767.52;;;19.06;55.60
79465;BME280;68932;47.410;8.232;2023-08-31T11:47:47;96768.64;;;18.98;55.84
79465;BME280;68932;47.410;8.232;2023-08-31T11:50:17;96769.28;;;18.99;56.82
79465;BME280;68932;47.410;8.232;2023-08-31T11:52:46;96769.45;;;19.01;56.52
79465;BME280;68932;47.410;8.232;2023-08-31T11:55:15;96770.39;;;19.04;56.78
79465;BME280;68932;47.410;8.232;2023-08-31T11:57:50;96772.85;;;19.07;56.53
79465;BME280;68932;47.410;8.232;2023-08-31T12:00:20;96774.98;;;19.11;56.83
79465;BME280;68932;47.410;8.232;2023-08-31T12:02:57;96771.22;;;19.14;56.61
79465;BME280;68932;47.410;8.232;2023-08-31T12:05:25;96775.77;;;19.19;57.33
79465;BME280;68932;47.410;8.232;2023-08-31T12:07:55;96772.30;;;19.23;57.21
79465;BME280;68932;47.410;8.232;2023-08-31T12:10:25;96772.74;;;19.29;57.41
79465;BME280;68932;47.410;8.232;2023-08-31T12:12:54;96766.21;;;19.36;56.34
79465;BME280;68932;47.410;8.232;2023-08-31T12:15:22;96763.50;;;19.43;56.44
79465;BME280;68932;47.410;8.232;2023-08-31T12:17:51;96766.48;;;19.57;56.74
79465;BME280;68932;47.410;8.232;2023-08-31T12:20:24;96767.36;;;19.70;56.43
79465;BME280;68932;47.410;8.232;2023-08-31T12:22:52;96770.58;;;19.79;55.78
79465;BME280;68932;47.410;8.232;2023-08-31T12:25:23;96769.27;;;19.81;55.83
79465;BME280;68932;47.410;8.232;2023-08-31T12:27:51;96767.64;;;19.86;56.46
79465;BME280;68932;47.410;8.232;2023-08-31T12:30:20;96771.05;;;19.92;57.01
79465;BME280;68932;47.410;8.232;2023-08-31T12:32:48;96771.77;;;20.01;56.56
79465;BME280;68932;47.410;8.232;2023-08-31T12:35:16;96766.23;;;20.11;56.18
79465;BME280;68932;47.410;8.232;2023-08-31T12:37:45;96768.09;;;20.20;55.59
79465;BME280;68932;47.410;8.232;2023-08-31T12:40:13;96764.48;;;20.29;55.16
79465;BME280;68932;47.410;8.232;2023-08-31T12:42:42;96766.07;;;20.40;55.62
79465;BME280;68932;47.410;8.232;2023-08-31T12:45:11;96769.14;;;20.50;54.93
79465;BME280;68932;47.410;8.232;2023-08-31T12:47:39;96773.52;;;20.50;54.35
79465;BME280;68932;47.410;8.232;2023-08-31T12:50:09;96772.35;;;20.46;53.92
79465;BME280;68932;47.410;8.232;2023-08-31T12:52:37;96769.84;;;20.45;54.11
79465;BME280;68932;47.410;8.232;2023-08-31T12:55:06;96773.88;;;20.46;53.71
79465;BME280;68932;47.410;8.232;2023-08-31T12:57:34;96768.81;;;20.43;54.01
79465;BME280;68932;47.410;8.232;2023-08-31T13:00:04;96764.70;;;20.43;54.71
79465;BME280;68932;47.410;8.232;2023-08-31T13:02:32;96761.06;;;20.41;53.38
79465;BME280;68932;47.410;8.232;2023-08-31T13:05:00;96753.33;;;20.36;53.54
79465;BME280;68932;47.410;8.232;2023-08-31T13:07:28;96754.33;;;20.33;53.86
79465;BME280;68932;47.410;8.232;2023-08-31T13:09:57;96751.86;;;20.37;55.11
79465;BME280;68932;47.410;8.232;2023-08-31T13:12:25;96750.38;;;20.44;55.71